createdAt,value
2018-09-29T00:00:33.826Z,102250.00
2018-09-29T00:03:03.152Z,102255.00
2018-09-29T00:05:32.459Z,102247.00
2018-09-29T00:08:02.140Z,102237.00
2018-09-29T00:10:31.447Z,102240.00
2018-09-29T00:13:00.646Z,102246.00
2018-09-29T00:15:30.047Z,102239.00
2018-09-29T00:17:59.330Z,102236.00
2018-09-29T00:20:28.630Z,102244.00
2018-09-29T00:22:57.868Z,102243.00
2018-09-29T00:25:27.228Z,102248.00
2018-09-29T00:27:56.494Z,102241.00
2018-09-29T00:30:25.900Z,102259.00
2018-09-29T00:32:55.179Z,102247.00
2018-09-29T00:35:24.855Z,102252.00
2018-09-29T00:37:54.362Z,102248.00
2018-09-29T00:40:23.695Z,102252.00
2018-09-29T00:42:52.946Z,102242.00
2018-09-29T00:45:22.314Z,102249.00
2018-09-29T00:47:51.683Z,102251.00
2018-09-29T00:50:21.036Z,102248.00
2018-09-29T00:52:50.305Z,102246.00
2018-09-29T00:55:19.576Z,102240.00
2018-09-29T00:57:48.862Z,102246.00
2018-09-29T01:00:18.303Z,102250.00
2018-09-29T01:02:47.673Z,102245.00
2018-09-29T01:05:17.061Z,102258.00
2018-09-29T01:07:46.412Z,102253.00
2018-09-29T01:10:15.927Z,102258.00
2018-09-29T01:12:45.203Z,102252.00
2018-09-29T01:15:14.614Z,102255.00
2018-09-29T01:17:43.980Z,102252.00
2018-09-29T01:20:13.277Z,102257.00
2018-09-29T01:22:42.620Z,102252.00
2018-09-29T01:25:12.191Z,102255.00
2018-09-29T01:27:41.484Z,102254.00
2018-09-29T01:30:10.756Z,102246.00
2018-09-29T01:32:40.052Z,102245.00
2018-09-29T01:35:09.340Z,102243.00
2018-09-29T01:37:38.706Z,102246.00
2018-09-29T01:40:08.036Z,102250.00
2018-09-29T01:42:46.131Z,102241.00
2018-09-29T01:45:15.401Z,102249.00
2018-09-29T01:47:44.755Z,102258.00
2018-09-29T01:50:14.099Z,102251.00
2018-09-29T01:52:43.443Z,102250.00
2018-09-29T01:55:12.734Z,102256.00
2018-09-29T01:57:42.010Z,102253.00
2018-09-29T02:00:11.401Z,102255.00
2018-09-29T02:02:40.839Z,102259.00
2018-09-29T02:05:10.349Z,102256.00
2018-09-29T02:07:39.911Z,102256.00
2018-09-29T02:10:09.256Z,102251.00
2018-09-29T02:12:38.684Z,102257.00
2018-09-29T02:15:08.084Z,102245.00
2018-09-29T02:17:37.391Z,102245.00
2018-09-29T02:20:06.859Z,102242.00
2018-09-29T02:22:36.155Z,102229.00
2018-09-29T02:25:05.448Z,102229.00
2018-09-29T02:27:34.778Z,102245.00
2018-09-29T02:30:04.172Z,102239.00
2018-09-29T02:32:33.476Z,102236.00
2018-09-29T02:35:02.847Z,102234.00
2018-09-29T02:37:32.184Z,102232.00
2018-09-29T02:40:01.520Z,102232.00
2018-09-29T02:42:31.308Z,102238.00
2018-09-29T02:45:00.642Z,102243.00
2018-09-29T02:47:29.995Z,102236.00
2018-09-29T02:49:59.259Z,102232.00
2018-09-29T02:52:28.619Z,102249.00
2018-09-29T02:54:58.044Z,102242.00
2018-09-29T02:57:27.364Z,102244.00
2018-09-29T02:59:56.662Z,102243.00
2018-09-29T03:02:26.019Z,102231.00
2018-09-29T03:04:55.367Z,102233.00
2018-09-29T03:07:24.641Z,102228.00
2018-09-29T03:09:53.916Z,102234.00
2018-09-29T03:12:23.163Z,102229.00
2018-09-29T03:14:52.474Z,102234.00
2018-09-29T03:17:22.052Z,102232.00
2018-09-29T03:19:51.594Z,102226.00
2018-09-29T03:22:20.968Z,102233.00
2018-09-29T03:24:50.352Z,102235.00
2018-09-29T03:27:19.664Z,102229.00
2018-09-29T03:29:48.944Z,102230.00
2018-09-29T03:32:18.328Z,102220.00
2018-09-29T03:34:47.619Z,102216.00
2018-09-29T03:37:16.891Z,102216.00
2018-09-29T03:39:46.207Z,102225.00
2018-09-29T03:42:15.524Z,102217.00
2018-09-29T03:44:44.831Z,102220.00
2018-09-29T03:47:14.204Z,102225.00
2018-09-29T03:49:43.488Z,102219.00
2018-09-29T03:52:12.830Z,102228.00
2018-09-29T03:54:42.123Z,102226.00
2018-09-29T03:57:11.616Z,102229.00
2018-09-29T03:59:40.931Z,102235.00
2018-09-29T04:02:10.199Z,102225.00
2018-09-29T04:04:39.522Z,102227.00
2018-09-29T04:07:08.768Z,102240.00
2018-09-29T04:09:38.067Z,102236.00
2018-09-29T04:12:07.399Z,102235.00
2018-09-29T04:14:36.950Z,102234.00
2018-09-29T04:17:07.021Z,102240.00
2018-09-29T04:19:36.305Z,102235.00
2018-09-29T04:22:05.922Z,102249.00
2018-09-29T04:24:35.183Z,102246.00
2018-09-29T04:27:04.561Z,102237.00
2018-09-29T04:29:33.875Z,102237.00
2018-09-29T04:32:03.166Z,102249.00
2018-09-29T04:34:32.507Z,102241.00
2018-09-29T04:37:01.858Z,102236.00
2018-09-29T04:39:31.194Z,102234.00
2018-09-29T04:42:01.303Z,102238.00
2018-09-29T04:44:30.610Z,102230.00
2018-09-29T04:46:59.859Z,102223.00
2018-09-29T04:49:29.186Z,102224.00
2018-09-29T04:51:58.536Z,102228.00
2018-09-29T04:54:27.851Z,102223.00
2018-09-29T04:56:57.144Z,102226.00
2018-09-29T04:59:26.526Z,102236.00
2018-09-29T05:01:55.824Z,102228.00
2018-09-29T05:04:25.155Z,102233.00
2018-09-29T05:06:54.498Z,102235.00
2018-09-29T05:09:23.852Z,102235.00
2018-09-29T05:11:53.118Z,102241.00
2018-09-29T05:14:22.412Z,102242.00
2018-09-29T05:16:51.730Z,102250.00
2018-09-29T05:19:21.254Z,102249.00
2018-09-29T05:21:50.567Z,102254.00
2018-09-29T05:24:19.839Z,102251.00
2018-09-29T05:26:50.277Z,102252.00
2018-09-29T05:29:19.613Z,102253.00
2018-09-29T05:31:49.276Z,102257.00
2018-09-29T05:34:18.611Z,102260.00
2018-09-29T05:36:47.939Z,102262.00
2018-09-29T05:39:17.311Z,102251.00
2018-09-29T05:41:46.700Z,102253.00
2018-09-29T05:44:16.060Z,102257.00
2018-09-29T05:46:45.389Z,102245.00
2018-09-29T05:49:15.087Z,102247.00
2018-09-29T05:51:44.371Z,102246.00
2018-09-29T05:54:13.936Z,102255.00
2018-09-29T05:56:43.269Z,102244.00
2018-09-29T05:59:12.517Z,102237.00
2018-09-29T06:01:41.853Z,102253.00
2018-09-29T06:04:13.786Z,102255.00
2018-09-29T06:06:43.088Z,102254.00
2018-09-29T06:09:12.451Z,102259.00
2018-09-29T06:11:41.710Z,102254.00
2018-09-29T06:14:11.099Z,102254.00
2018-09-29T06:16:40.346Z,102257.00
2018-09-29T06:19:09.734Z,102258.00
2018-09-29T06:21:39.006Z,102250.00
2018-09-29T06:24:08.275Z,102258.00
2018-09-29T06:26:37.611Z,102260.00
2018-09-29T06:29:07.156Z,102270.00
2018-09-29T06:31:36.455Z,102270.00
2018-09-29T06:34:05.853Z,102275.00
2018-09-29T06:36:35.024Z,102269.00
2018-09-29T06:39:05.591Z,102269.00
2018-09-29T06:41:34.938Z,102268.00
2018-09-29T06:44:04.321Z,102273.00
2018-09-29T06:46:33.544Z,102265.00
2018-09-29T06:49:04.930Z,102266.00
2018-09-29T06:51:34.437Z,102261.00
2018-09-29T06:54:04.115Z,102255.00
2018-09-29T06:56:33.424Z,102262.00
2018-09-29T06:59:03.027Z,102260.00
2018-09-29T07:01:32.297Z,102263.00
2018-09-29T07:04:01.697Z,102272.00
2018-09-29T07:06:31.194Z,102271.00
2018-09-29T07:09:00.548Z,102268.00
2018-09-29T07:11:30.129Z,102271.00
2018-09-29T07:13:59.698Z,102260.00
2018-09-29T07:16:28.995Z,102258.00
2018-09-29T07:18:58.274Z,102265.00
2018-09-29T07:21:28.056Z,102255.00
2018-09-29T07:23:57.379Z,102264.00
2018-09-29T07:26:26.945Z,102265.00
2018-09-29T07:28:56.286Z,102262.00
2018-09-29T07:31:25.812Z,102268.00
2018-09-29T07:33:55.122Z,102263.00
2018-09-29T07:36:24.418Z,102262.00
2018-09-29T07:38:53.723Z,102265.00
2018-09-29T07:41:23.623Z,102263.00
2018-09-29T07:43:52.920Z,102258.00
2018-09-29T07:46:22.224Z,102251.00
2018-09-29T07:48:51.569Z,102258.00
2018-09-29T07:51:21.308Z,102257.00
2018-09-29T07:53:52.947Z,102261.00
2018-09-29T07:56:22.271Z,102260.00
2018-09-29T07:58:51.621Z,102256.00
2018-09-29T08:01:20.895Z,102254.00
2018-09-29T08:03:50.592Z,102252.00
2018-09-29T08:06:19.998Z,102254.00
2018-09-29T08:08:49.359Z,102251.00
2018-09-29T08:11:18.655Z,102258.00
2018-09-29T08:13:47.951Z,102251.00
2018-09-29T08:16:17.229Z,102245.00
2018-09-29T08:18:47.346Z,102251.00
2018-09-29T08:21:16.659Z,102252.00
2018-09-29T08:23:46.196Z,102253.00
2018-09-29T08:26:15.792Z,102250.00
2018-09-29T08:28:45.728Z,102247.00
2018-09-29T08:31:16.603Z,102262.00
2018-09-29T08:33:46.292Z,102254.00
2018-09-29T08:36:15.927Z,102242.00
2018-09-29T08:38:45.339Z,102255.00
2018-09-29T08:41:14.981Z,102244.00
2018-09-29T08:43:44.283Z,102255.00
2018-09-29T08:46:13.933Z,102253.00
2018-09-29T08:48:43.472Z,102264.00
2018-09-29T08:51:12.716Z,102256.00
2018-09-29T08:53:42.203Z,102243.00
2018-09-29T08:56:11.416Z,102251.00
2018-09-29T08:58:40.731Z,102247.00
2018-09-29T09:01:10.509Z,102252.00
2018-09-29T09:03:39.835Z,102245.00
2018-09-29T09:06:09.216Z,102252.00
2018-09-29T09:08:38.816Z,102248.00
2018-09-29T09:11:08.229Z,102255.00
2018-09-29T09:13:37.919Z,102254.00
2018-09-29T09:16:07.481Z,102247.00
2018-09-29T09:18:36.806Z,102247.00
2018-09-29T09:21:06.199Z,102249.00
2018-09-29T09:23:35.601Z,102250.00
2018-09-29T09:26:04.917Z,102248.00
2018-09-29T09:28:34.853Z,102247.00
2018-09-29T09:31:04.433Z,102246.00
2018-09-29T09:33:34.613Z,102241.00
2018-09-29T09:36:03.992Z,102246.00
2018-09-29T09:38:33.299Z,102234.00
2018-09-29T09:41:02.603Z,102232.00
2018-09-29T09:43:32.275Z,102234.00
2018-09-29T09:46:02.124Z,102224.00
2018-09-29T09:48:31.878Z,102227.00
2018-09-29T09:51:01.297Z,102231.00
2018-09-29T09:53:30.912Z,102217.00
2018-09-29T09:56:00.476Z,102221.00
2018-09-29T09:58:29.847Z,102217.00
2018-09-29T10:01:05.280Z,102216.00
2018-09-29T10:03:34.692Z,102215.00
2018-09-29T10:06:04.074Z,102211.00
2018-09-29T10:08:33.430Z,102213.00
2018-09-29T10:11:02.751Z,102210.00
2018-09-29T10:13:32.515Z,102206.00
2018-09-29T10:16:01.881Z,102197.00
2018-09-29T10:18:31.211Z,102197.00
2018-09-29T10:21:00.529Z,102195.00
2018-09-29T10:23:30.179Z,102189.00
2018-09-29T10:25:59.468Z,102191.00
2018-09-29T10:28:28.759Z,102172.00
2018-09-29T10:30:58.044Z,102189.00
2018-09-29T10:33:27.812Z,102174.00
2018-09-29T10:35:57.095Z,102178.00
2018-09-29T10:38:27.936Z,102178.00
2018-09-29T10:40:57.279Z,102166.00
2018-09-29T10:43:27.008Z,102169.00
2018-09-29T10:45:56.614Z,102162.00
2018-09-29T10:48:26.773Z,102162.00
2018-09-29T10:50:56.114Z,102161.00
2018-09-29T10:53:25.385Z,102153.00
2018-09-29T10:55:55.405Z,102159.00
2018-09-29T10:58:25.013Z,102152.00
2018-09-29T11:00:54.651Z,102153.00
2018-09-29T11:03:25.348Z,102155.00
2018-09-29T11:05:54.746Z,102147.00
2018-09-29T11:08:24.191Z,102140.00
2018-09-29T11:10:53.715Z,102141.00
2018-09-29T11:13:22.991Z,102141.00
2018-09-29T11:15:52.327Z,102129.00
2018-09-29T11:18:22.239Z,102122.00
2018-09-29T11:20:51.808Z,102115.00
2018-09-29T11:23:21.107Z,102121.00
2018-09-29T11:25:50.943Z,102126.00
2018-09-29T11:28:20.411Z,102112.00
2018-09-29T11:30:49.720Z,102109.00
2018-09-29T11:33:19.298Z,102104.00
2018-09-29T11:35:48.757Z,102106.00
2018-09-29T11:38:18.166Z,102103.00
2018-09-29T11:40:47.473Z,102100.00
2018-09-29T11:43:17.145Z,102101.00
2018-09-29T11:45:46.686Z,102098.00
2018-09-29T11:48:15.994Z,102082.00
2018-09-29T11:50:45.271Z,102080.00
2018-09-29T11:53:14.531Z,102082.00
2018-09-29T11:55:43.846Z,102078.00
2018-09-29T11:58:13.170Z,102076.00
2018-09-29T12:00:42.540Z,102064.00
2018-09-29T12:03:11.984Z,102056.00
2018-09-29T12:05:41.333Z,102061.00
2018-09-29T12:08:10.828Z,102057.00
2018-09-29T12:10:40.199Z,102051.00
2018-09-29T12:13:10.286Z,102046.00
2018-09-29T12:15:39.920Z,102036.00
2018-09-29T12:18:09.648Z,102037.00
2018-09-29T12:20:39.094Z,102024.00
2018-09-29T12:23:08.422Z,102018.00
2018-09-29T12:25:37.709Z,102020.00
2018-09-29T12:28:07.065Z,102018.00
2018-09-29T12:30:36.629Z,102007.00
2018-09-29T12:33:06.008Z,101999.00
2018-09-29T12:35:35.347Z,101999.00
2018-09-29T12:38:04.651Z,101996.00
2018-09-29T12:40:35.055Z,101988.00
2018-09-29T12:43:04.496Z,101993.00
2018-09-29T12:45:33.875Z,101985.00
2018-09-29T12:48:03.140Z,101976.00
2018-09-29T12:50:32.450Z,101968.00
2018-09-29T12:53:01.701Z,101973.00
2018-09-29T12:55:31.019Z,101974.00
2018-09-29T12:58:00.334Z,101971.00
2018-09-29T13:00:29.907Z,101966.00
2018-09-29T13:03:01.094Z,101954.00
2018-09-29T13:05:30.460Z,101967.00
2018-09-29T13:07:59.868Z,101953.00
2018-09-29T13:10:29.143Z,101957.00
2018-09-29T13:12:58.808Z,101951.00
2018-09-29T13:15:28.148Z,101945.00
2018-09-29T13:17:58.268Z,101944.00
2018-09-29T13:20:27.710Z,101946.00
2018-09-29T13:22:57.281Z,101948.00
2018-09-29T13:25:26.533Z,101946.00
2018-09-29T13:27:55.941Z,101938.00
2018-09-29T13:30:25.446Z,101944.00
2018-09-29T13:32:55.157Z,101936.00
2018-09-29T13:35:24.919Z,101933.00
2018-09-29T13:37:54.280Z,101926.00
2018-09-29T13:40:23.879Z,101913.00
2018-09-29T13:42:53.142Z,101920.00
2018-09-29T13:45:22.492Z,101912.00
2018-09-29T13:47:51.825Z,101905.00
2018-09-29T13:50:21.225Z,101901.00
2018-09-29T13:52:50.637Z,101906.00
2018-09-29T13:55:19.972Z,101908.00
2018-09-29T13:57:49.289Z,101900.00
2018-09-29T14:00:18.704Z,101897.00
2018-09-29T14:02:48.047Z,101883.00
2018-09-29T14:05:17.412Z,101889.00
2018-09-29T14:07:46.719Z,101885.00
2018-09-29T14:10:16.349Z,101877.00
2018-09-29T14:12:45.671Z,101876.00
2018-09-29T14:15:15.494Z,101871.00
2018-09-29T14:17:45.932Z,101874.00
2018-09-29T14:20:15.604Z,101870.00
2018-09-29T14:22:44.968Z,101858.00
2018-09-29T14:25:15.326Z,101852.00
2018-09-29T14:27:44.819Z,101851.00
2018-09-29T14:30:14.214Z,101843.00
2018-09-29T14:32:43.739Z,101846.00
2018-09-29T14:35:13.049Z,101855.00
2018-09-29T14:37:42.406Z,101839.00
2018-09-29T14:40:11.843Z,101839.00
2018-09-29T14:42:41.148Z,101831.00
2018-09-29T14:45:10.589Z,101828.00
2018-09-29T14:47:39.877Z,101832.00
2018-09-29T14:50:09.212Z,101823.00
2018-09-29T14:52:38.872Z,101822.00
2018-09-29T14:55:08.271Z,101812.00
2018-09-29T14:57:37.547Z,101811.00
2018-09-29T15:00:07.473Z,101799.00
2018-09-29T15:02:36.866Z,101799.00
2018-09-29T15:05:07.279Z,101802.00
2018-09-29T15:07:36.595Z,101789.00
2018-09-29T15:10:06.071Z,101793.00
2018-09-29T15:12:40.315Z,101778.00
2018-09-29T15:15:09.670Z,101783.00
2018-09-29T15:17:39.438Z,101768.00
2018-09-29T15:20:08.727Z,101778.00
2018-09-29T15:22:38.021Z,101763.00
2018-09-29T15:25:07.327Z,101766.00
2018-09-29T15:27:36.964Z,101768.00
2018-09-29T15:30:06.297Z,101757.00
2018-09-29T15:32:35.578Z,101753.00
2018-09-29T15:35:05.078Z,101754.00
2018-09-29T15:37:34.437Z,101757.00
2018-09-29T15:40:03.807Z,101747.00
2018-09-29T15:42:33.113Z,101753.00
2018-09-29T15:45:02.704Z,101749.00
2018-09-29T15:47:32.028Z,101749.00
2018-09-29T15:50:01.395Z,101743.00
2018-09-29T15:52:30.740Z,101740.00
2018-09-29T15:55:00.100Z,101733.00
2018-09-29T15:57:29.720Z,101731.00
2018-09-29T16:00:00.546Z,101735.00
2018-09-29T16:02:29.856Z,101737.00
2018-09-29T16:04:59.392Z,101740.00
2018-09-29T16:07:28.695Z,101729.00
2018-09-29T16:09:58.036Z,101736.00
2018-09-29T16:12:27.447Z,101726.00
2018-09-29T16:14:56.955Z,101722.00
2018-09-29T16:17:26.455Z,101720.00
2018-09-29T16:19:55.766Z,101723.00
2018-09-29T16:22:25.093Z,101722.00
2018-09-29T16:24:54.426Z,101716.00
2018-09-29T16:27:24.788Z,101710.00
2018-09-29T16:29:54.087Z,101711.00
2018-09-29T16:32:23.412Z,101712.00
2018-09-29T16:34:52.702Z,101699.00
2018-09-29T16:37:22.432Z,101706.00
2018-09-29T16:39:52.019Z,101704.00
2018-09-29T16:42:21.319Z,101707.00
2018-09-29T16:44:50.602Z,101703.00
2018-09-29T16:47:19.940Z,101708.00
2018-09-29T16:49:49.325Z,101704.00
2018-09-29T16:52:18.690Z,101705.00
2018-09-29T16:54:48.026Z,101699.00
2018-09-29T16:57:17.411Z,101692.00
2018-09-29T16:59:46.733Z,101694.00
2018-09-29T17:02:17.172Z,101696.00
2018-09-29T17:04:46.651Z,101700.00
2018-09-29T17:07:15.831Z,101695.00
2018-09-29T17:09:45.608Z,101692.00
2018-09-29T17:12:14.868Z,101697.00
2018-09-29T17:14:44.197Z,101695.00
2018-09-29T17:17:13.459Z,101698.00
2018-09-29T17:19:42.780Z,101702.00
2018-09-29T17:22:12.103Z,101697.00
2018-09-29T17:24:41.839Z,101706.00
2018-09-29T17:27:11.248Z,101706.00
2018-09-29T17:29:40.637Z,101719.00
2018-09-29T17:32:10.392Z,101698.00
2018-09-29T17:34:39.671Z,101705.00
2018-09-29T17:37:08.995Z,101699.00
2018-09-29T17:39:38.277Z,101704.00
2018-09-29T17:42:07.765Z,101706.00
2018-09-29T17:44:37.071Z,101691.00
2018-09-29T17:47:06.631Z,101707.00
2018-09-29T17:49:35.970Z,101694.00
2018-09-29T17:52:05.343Z,101700.00
2018-09-29T17:54:34.603Z,101697.00
2018-09-29T17:57:03.948Z,101691.00
2018-09-29T17:59:33.294Z,101694.00
2018-09-29T18:02:02.857Z,101684.00
2018-09-29T18:04:32.261Z,101690.00
2018-09-29T18:07:01.792Z,101689.00
2018-09-29T18:09:31.128Z,101690.00
2018-09-29T18:12:00.399Z,101691.00
2018-09-29T18:14:29.952Z,101686.00
2018-09-29T18:16:59.399Z,101687.00
2018-09-29T18:19:28.969Z,101686.00
2018-09-29T18:21:58.702Z,101685.00
2018-09-29T18:24:27.931Z,101686.00
2018-09-29T18:26:57.239Z,101683.00
2018-09-29T18:29:26.945Z,101685.00
2018-09-29T18:31:56.262Z,101688.00
2018-09-29T18:34:25.587Z,101677.00
2018-09-29T18:36:55.514Z,101691.00
2018-09-29T18:39:24.842Z,101686.00
2018-09-29T18:41:54.221Z,101682.00
2018-09-29T18:44:23.548Z,101690.00
2018-09-29T18:46:52.879Z,101682.00
2018-09-29T18:49:22.143Z,101677.00
2018-09-29T18:51:51.561Z,101677.00
2018-09-29T18:54:20.875Z,101677.00
2018-09-29T18:56:50.266Z,101666.00
2018-09-29T18:59:19.620Z,101667.00
2018-09-29T19:01:48.949Z,101664.00
2018-09-29T19:04:18.247Z,101662.00
2018-09-29T19:06:47.844Z,101667.00
2018-09-29T19:09:17.095Z,101661.00
2018-09-29T19:11:46.466Z,101662.00
2018-09-29T19:14:15.799Z,101666.00
2018-09-29T19:16:45.133Z,101660.00
2018-09-29T19:19:14.419Z,101658.00
2018-09-29T19:21:43.792Z,101658.00
2018-09-29T19:24:13.055Z,101657.00
2018-09-29T19:26:42.599Z,101665.00
2018-09-29T19:29:11.893Z,101660.00
2018-09-29T19:31:41.228Z,101656.00
2018-09-29T19:34:10.495Z,101654.00
2018-09-29T19:36:39.764Z,101655.00
2018-09-29T19:39:09.260Z,101649.00
2018-09-29T19:41:38.585Z,101652.00
2018-09-29T19:44:07.959Z,101649.00
2018-09-29T19:46:37.302Z,101644.00
2018-09-29T19:49:06.760Z,101639.00
2018-09-29T19:51:36.115Z,101635.00
2018-09-29T19:54:05.568Z,101639.00
2018-09-29T19:56:35.073Z,101636.00
2018-09-29T19:59:04.661Z,101629.00
2018-09-29T20:01:34.007Z,101628.00
2018-09-29T20:04:03.614Z,101633.00
2018-09-29T20:06:32.912Z,101635.00
2018-09-29T20:09:02.598Z,101621.00
2018-09-29T20:11:31.857Z,101617.00
2018-09-29T20:14:01.194Z,101615.00
2018-09-29T20:16:31.260Z,101606.00
2018-09-29T20:19:00.534Z,101615.00
2018-09-29T20:21:29.870Z,101608.00
2018-09-29T20:23:59.430Z,101613.00
2018-09-29T20:26:28.735Z,101613.00
2018-09-29T20:28:58.054Z,101598.00
2018-09-29T20:31:27.366Z,101601.00
2018-09-29T20:33:56.733Z,101600.00
2018-09-29T20:36:26.243Z,101600.00
2018-09-29T20:38:55.542Z,101596.00
2018-09-29T20:41:25.244Z,101591.00
2018-09-29T20:43:54.570Z,101596.00
2018-09-29T20:46:23.898Z,101594.00
2018-09-29T20:48:53.287Z,101580.00
2018-09-29T20:51:22.567Z,101593.00
2018-09-29T20:53:51.899Z,101591.00
2018-09-29T20:56:21.184Z,101594.00
2018-09-29T20:58:50.501Z,101584.00
2018-09-29T21:01:19.851Z,101588.00
2018-09-29T21:03:53.259Z,101582.00
2018-09-29T21:06:22.512Z,101579.00
2018-09-29T21:08:51.836Z,101575.00
2018-09-29T21:11:21.108Z,101570.00
2018-09-29T21:13:50.709Z,101567.00
2018-09-29T21:16:20.016Z,101569.00
2018-09-29T21:18:49.293Z,101563.00
2018-09-29T21:21:18.583Z,101561.00
2018-09-29T21:23:47.856Z,101555.00
2018-09-29T21:26:17.161Z,101556.00
2018-09-29T21:28:46.504Z,101536.00
2018-09-29T21:31:15.873Z,101554.00
2018-09-29T21:33:45.235Z,101561.00
2018-09-29T21:36:14.497Z,101553.00
2018-09-29T21:38:43.787Z,101551.00
2018-09-29T21:41:13.159Z,101541.00
2018-09-29T21:43:42.559Z,101544.00
2018-09-29T21:46:12.167Z,101537.00
2018-09-29T21:48:41.650Z,101527.00
2018-09-29T21:51:11.015Z,101535.00
2018-09-29T21:53:40.333Z,101526.00
2018-09-29T21:56:09.628Z,101529.00
2018-09-29T21:58:38.931Z,101530.00
2018-09-29T22:01:13.663Z,101523.00
2018-09-29T22:03:42.966Z,101522.00
2018-09-29T22:06:12.344Z,101515.00
2018-09-29T22:08:41.663Z,101518.00
2018-09-29T22:11:11.044Z,101510.00
2018-09-29T22:13:40.411Z,101515.00
2018-09-29T22:16:09.675Z,101515.00
2018-09-29T22:18:39.030Z,101514.00
2018-09-29T22:21:08.442Z,101510.00
2018-09-29T22:23:37.631Z,101500.00
2018-09-29T22:26:07.019Z,101502.00
2018-09-29T22:28:36.319Z,101499.00
2018-09-29T22:31:05.837Z,101497.00
2018-09-29T22:33:35.127Z,101492.00
2018-09-29T22:36:07.405Z,101487.00
2018-09-29T22:38:36.706Z,101484.00
2018-09-29T22:41:06.101Z,101478.00
2018-09-29T22:43:35.454Z,101484.00
2018-09-29T22:46:05.033Z,101467.00
2018-09-29T22:48:34.646Z,101466.00
2018-09-29T22:51:03.947Z,101466.00
2018-09-29T22:53:33.266Z,101465.00
2018-09-29T22:56:02.675Z,101468.00
2018-09-29T22:58:32.003Z,101467.00
2018-09-29T23:01:01.191Z,101464.00
2018-09-29T23:03:30.540Z,101458.00
2018-09-29T23:05:59.833Z,101460.00
2018-09-29T23:08:29.176Z,101451.00
2018-09-29T23:10:58.545Z,101444.00
2018-09-29T23:13:28.034Z,101447.00
2018-09-29T23:15:57.488Z,101446.00
2018-09-29T23:18:26.948Z,101438.00
2018-09-29T23:20:56.473Z,101440.00
2018-09-29T23:23:25.805Z,101445.00
2018-09-29T23:25:55.253Z,101434.00
2018-09-29T23:28:24.643Z,101440.00
2018-09-29T23:30:54.060Z,101433.00
2018-09-29T23:33:23.314Z,101417.00
2018-09-29T23:35:53.008Z,101414.00
2018-09-29T23:38:22.362Z,101420.00
2018-09-29T23:40:51.704Z,101414.00
2018-09-29T23:43:21.225Z,101420.00
2018-09-29T23:45:50.553Z,101405.00
2018-09-29T23:48:20.304Z,101407.00
2018-09-29T23:50:49.695Z,101399.00
2018-09-29T23:53:19.079Z,101395.00
2018-09-29T23:55:48.583Z,101391.00
2018-09-29T23:58:17.982Z,101385.00
